KCMY/CMY METAR and TAF weather

Enter ICAO airport designator
Station Type Date Time Source
KCMY METAR 2021/08/01 16:55 UTC NOAA

KCMY 011655Z AUTO 36008KT 10SM 20/11 A3015 RMK AO2 T02010112


Station Type Date Time Source
KCMY Decoded METAR 2021/08/01 16:55 UTC NOAA

Sparta, Sparta / Fort McCoy Airport, WI, United States (KCMY) 43-57-30N 090-44-16W
Aug 01, 2021 - 12:55 PM EDT / 2021.08.01 1655 UTC
Wind: from the N (360 degrees) at 9 MPH (8 KT):0
Visibility: 10 mile(s):0
Temperature: 68.2 F (20.1 C)
Dew Point: 52.2 F (11.2 C)
Relative Humidity: 56%
Pressure (altimeter): 30.15 in. Hg (1020 hPa)
ob: KCMY 011655Z AUTO 36008KT 10SM 20/11 A3015 RMK AO2 T02010112
cycle: 17

Station Type Date Time Source
KCMY TAF UTC NOAA

Error!

Example: see airport list